Time;durP1;ratioP1;P1;durP2;ratioP2;P2;SDS_P1;SDS_P2;PMS_P1;PMS_P2;Temp;Humidity;BMP_temperature;BMP_pressure;BME280_temperature;BME280_humidity;BME280_pressure;Samples;Min_cycle;Max_cycle;Signal;HPM_P1;HPM_P2
2022/03/04 00:01:36;;;;;;;;;;;;;;;1.94;49.13;98127.94;5001249;28;19944;-80
2022/03/04 00:04:04;;;;;;;;;;;;;;;1.91;48.99;98133.78;5001655;28;19945;-79
2022/03/04 00:06:32;;;;;;;;;;;;;;;1.88;49.15;98133.50;5001654;28;19952;-78
2022/03/04 00:09:01;;;;;;;;;;;;;;;1.96;48.83;98125.81;5000188;28;19960;-79
2022/03/04 00:11:32;;;;;;;;;;;;;;;1.92;48.93;98137.28;5003171;28;20402;-80
2022/03/04 00:14:00;;;;;;;;;;;;;;;1.95;48.77;98137.59;5002419;28;20627;-79
2022/03/04 00:16:30;;;;;;;;;;;;;;;1.79;49.06;98130.44;5000651;28;20420;-78
2022/03/04 00:19:09;;;;;;;;;;;;;;;1.84;48.86;98135.84;5005314;28;19933;-80
2022/03/04 00:21:37;;;;;;;;;;;;;;;1.44;50.06;98128.91;5001170;28;19971;-81
2022/03/04 00:24:07;;;;;;;;;;;;;;;1.51;49.94;98134.91;5004495;28;19980;-83
2022/03/04 00:26:35;;;;;;;;;;;;;;;1.63;49.97;98131.28;5002228;28;19948;-78
2022/03/04 00:29:03;;;;;;;;;;;;;;;1.95;49.02;98140.28;5002147;28;19934;-80
2022/03/04 00:31:37;;;;;;;;;;;;;;;1.88;49.14;98146.91;5000047;28;19933;-80
2022/03/04 00:34:06;;;;;;;;;;;;;;;1.80;48.95;98137.41;5000668;28;19961;-78
2022/03/04 00:36:35;;;;;;;;;;;;;;;1.68;49.45;98139.41;5003273;28;19925;-79
2022/03/04 00:39:04;;;;;;;;;;;;;;;1.73;49.54;98145.63;5000541;28;19969;-81
2022/03/04 00:41:33;;;;;;;;;;;;;;;1.80;49.05;98148.94;5003513;28;20422;-80
2022/03/04 00:44:01;;;;;;;;;;;;;;;1.56;49.74;98143.00;5004306;28;20304;-80
2022/03/04 00:46:29;;;;;;;;;;;;;;;1.42;50.04;98133.69;5002915;28;19959;-80
2022/03/04 00:48:57;;;;;;;;;;;;;;;1.31;50.82;98140.78;5001373;28;19934;-80
2022/03/04 00:51:25;;;;;;;;;;;;;;;1.67;49.69;98145.81;5002282;28;19933;-78
2022/03/04 00:53:53;;;;;;;;;;;;;;;1.75;48.91;98140.81;5005964;28;19991;-81
2022/03/04 00:56:21;;;;;;;;;;;;;;;1.74;49.48;98143.75;5000362;28;19929;-79
2022/03/04 00:58:50;;;;;;;;;;;;;;;1.48;50.22;98139.94;5003109;28;19953;-78
2022/03/04 01:01:18;;;;;;;;;;;;;;;1.36;50.24;98142.72;4995979;28;19930;-78
2022/03/04 01:03:46;;;;;;;;;;;;;;;1.71;49.46;98144.28;4999727;28;20008;-81
2022/03/04 01:06:14;;;;;;;;;;;;;;;1.56;49.87;98136.84;5002677;28;19925;-79
2022/03/04 01:08:42;;;;;;;;;;;;;;;1.51;49.92;98129.53;5002397;28;19925;-80
2022/03/04 01:11:10;;;;;;;;;;;;;;;1.67;49.54;98137.78;4997405;28;21105;-78
2022/03/04 01:13:38;;;;;;;;;;;;;;;1.68;49.34;98134.84;5000598;28;19960;-80
2022/03/04 01:16:10;;;;;;;;;;;;;;;1.43;50.61;98138.00;4999469;28;20039;-80
2022/03/04 01:18:38;;;;;;;;;;;;;;;1.45;50.15;98137.75;5001559;28;19929;-79
2022/03/04 01:21:06;;;;;;;;;;;;;;;1.31;50.25;98135.41;5003204;28;19926;-77
2022/03/04 01:23:34;;;;;;;;;;;;;;;1.40;50.53;98135.00;5002560;28;19940;-81
2022/03/04 01:26:05;;;;;;;;;;;;;;;1.24;50.60;98134.78;4998106;28;19942;-78
2022/03/04 01:28:36;;;;;;;;;;;;;;;1.11;51.12;98145.00;5001823;28;19940;-77
2022/03/04 01:31:09;;;;;;;;;;;;;;;0.92;51.67;98134.56;4995475;28;20312;-80
2022/03/04 01:33:38;;;;;;;;;;;;;;;1.01;51.02;98130.44;5001280;28;19949;-79
2022/03/04 01:36:06;;;;;;;;;;;;;;;1.02;51.28;98134.72;5001255;28;19925;-79
2022/03/04 01:38:34;;;;;;;;;;;;;;;0.94;50.97;98124.41;4997720;28;19968;-82
2022/03/04 01:41:03;;;;;;;;;;;;;;;0.98;51.51;98130.91;5002430;28;19933;-83
2022/03/04 01:43:36;;;;;;;;;;;;;;;0.77;51.84;98126.28;4994135;28;20012;-80
2022/03/04 01:46:32;;;;;;;;;;;;;;;1.11;50.85;98118.25;4999516;28;19934;-78
2022/03/04 01:49:01;;;;;;;;;;;;;;;1.32;50.71;98125.53;4999604;28;19933;-81
2022/03/04 01:51:29;;;;;;;;;;;;;;;1.25;50.88;98125.69;5000742;28;19973;-77
2022/03/04 01:53:57;;;;;;;;;;;;;;;1.03;51.02;98122.97;4998602;28;20388;-79
2022/03/04 01:56:25;;;;;;;;;;;;;;;1.20;51.01;98119.47;5001509;28;19976;-79
2022/03/04 01:58:53;;;;;;;;;;;;;;;1.51;49.94;98113.47;4999979;28;19937;-80
2022/03/04 02:01:21;;;;;;;;;;;;;;;1.36;50.62;98118.63;4998579;28;19936;-81
2022/03/04 02:03:50;;;;;;;;;;;;;;;1.00;51.63;98112.75;5002282;28;20008;-80
2022/03/04 02:06:19;;;;;;;;;;;;;;;0.97;51.73;98109.75;4998596;28;20023;-79
2022/03/04 02:08:47;;;;;;;;;;;;;;;1.02;51.66;98110.66;4996270;28;19949;-79
2022/03/04 02:11:15;;;;;;;;;;;;;;;0.91;51.83;98108.88;5003413;28;19926;-79
2022/03/04 02:13:43;;;;;;;;;;;;;;;1.05;51.65;98115.50;4995237;28;19957;-79
2022/03/04 02:16:12;;;;;;;;;;;;;;;1.33;50.85;98110.25;5000325;28;19988;-78
2022/03/04 02:18:43;;;;;;;;;;;;;;;1.16;51.06;98111.09;5001858;28;19925;-78
2022/03/04 02:21:12;;;;;;;;;;;;;;;1.34;50.58;98109.22;4997375;28;19976;-81
2022/03/04 02:23:43;;;;;;;;;;;;;;;1.34;50.58;98107.38;4994704;28;20024;-79
2022/03/04 02:26:11;;;;;;;;;;;;;;;1.47;50.44;98100.84;5002517;28;19942;-79
2022/03/04 02:28:39;;;;;;;;;;;;;;;1.19;50.89;98099.13;4998635;28;19975;-79
2022/03/04 02:31:07;;;;;;;;;;;;;;;1.08;51.42;98092.00;4996854;28;20043;-77
2022/03/04 02:33:35;;;;;;;;;;;;;;;1.15;51.00;98097.97;4999132;28;19929;-80
2022/03/04 02:36:06;;;;;;;;;;;;;;;1.18;51.12;98100.19;5000127;28;19933;-79
2022/03/04 02:38:34;;;;;;;;;;;;;;;1.15;51.06;98093.44;5002422;28;20379;-83
2022/03/04 02:41:06;;;;;;;;;;;;;;;0.88;51.60;98093.31;4998365;28;19925;-81
2022/03/04 02:43:35;;;;;;;;;;;;;;;0.99;51.50;98095.06;4998009;28;19926;-78
2022/03/04 02:46:02;;;;;;;;;;;;;;;0.97;51.66;98102.53;4996225;28;20333;-81
2022/03/04 02:48:32;;;;;;;;;;;;;;;0.97;51.44;98102.53;4998789;28;19933;-82
2022/03/04 02:51:06;;;;;;;;;;;;;;;0.84;51.80;98097.50;4999036;28;19933;-81
2022/03/04 02:53:35;;;;;;;;;;;;;;;1.01;51.74;98098.34;4997884;28;19925;-82
2022/03/04 02:56:06;;;;;;;;;;;;;;;1.07;50.97;98093.06;5001544;28;19925;-82
2022/03/04 02:58:34;;;;;;;;;;;;;;;0.98;51.54;98090.78;5005073;28;20384;-82
2022/03/04 03:01:05;;;;;;;;;;;;;;;0.54;53.20;98099.72;5002306;28;20336;-81
2022/03/04 03:03:34;;;;;;;;;;;;;;;0.78;51.83;98098.50;5021536;28;19932;-79
2022/03/04 03:06:06;;;;;;;;;;;;;;;0.66;52.84;98105.78;5006701;28;19932;-81
2022/03/04 03:08:34;;;;;;;;;;;;;;;0.46;53.16;98100.91;5005756;28;19925;-78
2022/03/04 03:11:09;;;;;;;;;;;;;;;0.56;52.73;98109.09;4999198;28;19930;-79
2022/03/04 03:13:37;;;;;;;;;;;;;;;0.30;53.36;98113.19;5004872;28;20388;-80
2022/03/04 03:16:09;;;;;;;;;;;;;;;0.31;53.25;98114.81;5002410;28;19933;-79
2022/03/04 03:18:38;;;;;;;;;;;;;;;0.62;53.08;98107.31;5002869;28;19964;-80
2022/03/04 03:21:08;;;;;;;;;;;;;;;0.94;51.83;98108.38;5001442;28;20419;-79
2022/03/04 03:23:36;;;;;;;;;;;;;;;0.84;51.86;98112.75;5002474;28;19957;-78
2022/03/04 03:26:06;;;;;;;;;;;;;;;0.73;52.02;98117.13;5003697;28;20403;-82
2022/03/04 03:28:38;;;;;;;;;;;;;;;0.71;52.06;98116.56;5004541;28;19929;-80
2022/03/04 03:31:07;;;;;;;;;;;;;;;0.78;51.54;98120.69;5000885;28;20561;-80
2022/03/04 03:33:37;;;;;;;;;;;;;;;0.65;52.60;98117.53;5001518;28;19999;-83
2022/03/04 03:36:07;;;;;;;;;;;;;;;0.76;51.70;98112.13;5000472;28;19926;-78
2022/03/04 03:38:35;;;;;;;;;;;;;;;0.83;52.00;98117.28;4999805;28;19926;-79
2022/03/04 03:41:06;;;;;;;;;;;;;;;0.50;52.96;98115.41;4997858;28;20435;-80
2022/03/04 03:43:41;;;;;;;;;;;;;;;0.16;54.11;98119.88;4996735;28;19926;-79
2022/03/04 03:46:10;;;;;;;;;;;;;;;0.18;53.69;98118.59;5001241;28;19932;-84
2022/03/04 03:48:39;;;;;;;;;;;;;;;0.43;53.53;98123.59;5001619;28;20013;-79
2022/03/04 03:51:08;;;;;;;;;;;;;;;0.81;52.11;98119.41;5001870;28;19933;-82
2022/03/04 03:53:36;;;;;;;;;;;;;;;0.58;52.86;98115.00;5005421;28;19937;-80
2022/03/04 03:56:06;;;;;;;;;;;;;;;0.46;53.14;98124.97;5001008;28;19956;-80
2022/03/04 03:58:34;;;;;;;;;;;;;;;0.55;53.09;98125.38;5003376;28;19929;-79
2022/03/04 04:01:07;;;;;;;;;;;;;;;0.62;52.79;98131.38;5001893;28;19930;-84
2022/03/04 04:03:35;;;;;;;;;;;;;;;0.76;52.42;98136.19;4999920;28;20451;-84
2022/03/04 04:06:07;;;;;;;;;;;;;;;0.72;52.26;98137.72;5000129;28;19961;-83
2022/03/04 04:08:35;;;;;;;;;;;;;;;0.66;52.28;98141.34;5000700;28;19926;-83
2022/03/04 04:11:06;;;;;;;;;;;;;;;0.44;52.97;98137.75;5000499;28;22637;-81
2022/03/04 04:13:34;;;;;;;;;;;;;;;0.27;53.58;98145.75;5001148;28;19925;-82
2022/03/04 04:16:02;;;;;;;;;;;;;;;0.16;54.13;98142.06;5000053;28;19933;-80
2022/03/04 04:18:33;;;;;;;;;;;;;;;0.03;54.49;98146.88;5006155;28;19926;-82
2022/03/04 04:21:02;;;;;;;;;;;;;;;0.25;53.84;98147.84;5002192;28;21197;-81
2022/03/04 04:23:32;;;;;;;;;;;;;;;0.15;54.31;98152.97;5000709;28;19980;-79
2022/03/04 04:26:00;;;;;;;;;;;;;;;0.20;53.97;98151.22;4999060;28;20389;-79
2022/03/04 04:28:34;;;;;;;;;;;;;;;0.50;53.14;98150.97;5000658;28;20289;-80
2022/03/04 04:31:06;;;;;;;;;;;;;;;0.54;52.83;98145.97;4994061;28;19938;-83
2022/03/04 04:33:36;;;;;;;;;;;;;;;0.34;53.41;98148.28;4998259;28;19933;-79
2022/03/04 04:36:06;;;;;;;;;;;;;;;0.26;53.50;98149.44;4997351;28;19933;-82
2022/03/04 04:38:34;;;;;;;;;;;;;;;0.13;53.36;98147.06;4999170;28;20439;-80
2022/03/04 04:41:02;;;;;;;;;;;;;;;0.16;53.75;98151.94;5001286;28;19980;-80
2022/03/04 04:43:33;;;;;;;;;;;;;;;0.11;53.60;98155.34;4998075;28;19957;-81
2022/03/04 04:46:01;;;;;;;;;;;;;;;-0.04;54.41;98153.16;4996418;28;19985;-80
2022/03/04 04:48:29;;;;;;;;;;;;;;;0.12;54.25;98158.81;4996940;28;19929;-79
2022/03/04 04:50:59;;;;;;;;;;;;;;;0.01;54.55;98159.66;5001970;28;21104;-80
2022/03/04 04:53:32;;;;;;;;;;;;;;;-0.04;54.46;98161.19;5004021;28;20386;-84
2022/03/04 04:56:00;;;;;;;;;;;;;;;-0.21;54.97;98162.97;4997532;28;20276;-79
2022/03/04 04:58:28;;;;;;;;;;;;;;;-0.07;54.97;98155.50;4999853;28;20013;-82
2022/03/04 05:00:56;;;;;;;;;;;;;;;-0.15;54.40;98159.34;4998445;28;19940;-82
2022/03/04 05:03:26;;;;;;;;;;;;;;;-0.06;54.14;98165.94;4997257;28;20389;-79
2022/03/04 05:06:20;;;;;;;;;;;;;;;-0.09;53.94;98169.09;4996048;28;19926;-79
2022/03/04 05:08:49;;;;;;;;;;;;;;;-0.06;54.07;98165.13;4996124;28;19932;-80
2022/03/04 05:11:17;;;;;;;;;;;;;;;-0.20;54.65;98169.13;4994861;28;20396;-81
2022/03/04 05:13:47;;;;;;;;;;;;;;;-0.27;55.00;98169.22;4998968;28;20283;-79
2022/03/04 05:16:14;;;;;;;;;;;;;;;-0.35;54.73;98174.94;4997840;28;19932;-80
2022/03/04 05:18:43;;;;;;;;;;;;;;;-0.32;55.10;98177.13;5000737;28;19925;-84
2022/03/04 05:21:11;;;;;;;;;;;;;;;-0.37;55.08;98172.53;4998600;28;19971;-79
2022/03/04 05:26:27;;;;;;;;;;;;;;;-0.68;56.73;98180.91;4996880;28;19933;-83
2022/03/04 05:28:55;;;;;;;;;;;;;;;-0.78;57.24;98176.13;4998626;28;19925;-79
2022/03/04 05:31:23;;;;;;;;;;;;;;;-0.68;57.16;98180.91;4998285;28;19930;-80
2022/03/04 05:33:51;;;;;;;;;;;;;;;-0.92;57.92;98177.38;4995255;28;19989;-81
2022/03/04 05:36:26;;;;;;;;;;;;;;;-0.76;57.30;98184.69;4999771;28;19926;-80
2022/03/04 05:38:54;;;;;;;;;;;;;;;-0.83;56.97;98184.00;4997466;28;19938;-82
2022/03/04 05:41:22;;;;;;;;;;;;;;;-0.74;56.75;98182.63;4998970;28;20304;-80
2022/03/04 05:43:52;;;;;;;;;;;;;;;-0.68;56.28;98186.22;4998366;28;19972;-82
2022/03/04 05:46:20;;;;;;;;;;;;;;;-0.62;56.57;98186.09;4996298;28;20313;-79
2022/03/04 05:48:48;;;;;;;;;;;;;;;-0.33;55.65;98192.34;5006596;28;20396;-82
2022/03/04 05:51:15;;;;;;;;;;;;;;;-0.44;55.54;98203.03;4998267;28;19925;-80
2022/03/04 05:53:44;;;;;;;;;;;;;;;-0.35;55.57;98206.97;4999041;28;19925;-82
2022/03/04 05:56:12;;;;;;;;;;;;;;;-0.29;55.25;98211.38;4997265;28;19926;-75
2022/03/04 05:58:40;;;;;;;;;;;;;;;-0.16;54.69;98210.31;4998465;28;19925;-80
2022/03/04 06:01:09;;;;;;;;;;;;;;;-0.38;55.35;98208.25;4994644;28;19929;-81
2022/03/04 06:03:39;;;;;;;;;;;;;;;-0.55;55.82;98210.81;5000912;28;19976;-81
2022/03/04 06:06:07;;;;;;;;;;;;;;;-0.34;55.50;98208.59;5003007;28;19933;-80
2022/03/04 06:08:36;;;;;;;;;;;;;;;-0.11;54.91;98218.44;4997006;28;19945;-81
2022/03/04 06:11:08;;;;;;;;;;;;;;;-0.16;55.70;98221.00;4997851;28;20025;-81
2022/03/04 06:13:35;;;;;;;;;;;;;;;-0.05;54.64;98226.34;4995656;28;19938;-85
2022/03/04 06:16:06;;;;;;;;;;;;;;;-0.06;54.62;98227.34;4994937;28;19968;-80
2022/03/04 06:18:35;;;;;;;;;;;;;;;-0.01;54.79;98224.00;4997352;28;19925;-82
2022/03/04 06:21:06;;;;;;;;;;;;;;;0.01;54.66;98234.47;4997701;28;19932;-81
2022/03/04 06:23:34;;;;;;;;;;;;;;;0.19;53.75;98229.75;4998268;28;19943;-81
2022/03/04 06:26:02;;;;;;;;;;;;;;;-0.18;55.53;98234.59;4997706;28;19930;-81
2022/03/04 06:28:32;;;;;;;;;;;;;;;-0.28;55.09;98234.34;5000813;28;19929;-80
2022/03/04 06:31:00;;;;;;;;;;;;;;;-0.46;55.87;98237.97;4995353;28;19965;-83
2022/03/04 06:33:32;;;;;;;;;;;;;;;-0.18;54.89;98239.94;4995030;28;19934;-83
2022/03/04 06:36:02;;;;;;;;;;;;;;;-0.20;55.04;98235.88;4997910;28;19930;-79
2022/03/04 06:38:38;;;;;;;;;;;;;;;-0.03;54.58;98245.59;4998680;28;19926;-83
2022/03/04 06:41:09;;;;;;;;;;;;;;;-0.02;54.52;98239.22;4995441;28;19953;-79
2022/03/04 06:43:38;;;;;;;;;;;;;;;0.12;54.13;98244.31;4994766;28;19926;-82
2022/03/04 06:46:07;;;;;;;;;;;;;;;-0.17;54.96;98251.41;4997480;28;19940;-82
2022/03/04 06:48:35;;;;;;;;;;;;;;;-0.03;54.90;98256.28;4999161;28;19932;-89
2022/03/04 06:51:08;;;;;;;;;;;;;;;-0.31;55.67;98266.88;4997714;28;19933;-86
2022/03/04 06:53:36;;;;;;;;;;;;;;;-0.27;55.51;98268.84;4997006;28;20343;-79
2022/03/04 06:56:06;;;;;;;;;;;;;;;-0.22;55.83;98260.13;4997075;28;19953;-81
2022/03/04 06:58:34;;;;;;;;;;;;;;;0.07;54.63;98266.38;5001085;28;19933;-88
2022/03/04 07:01:05;;;;;;;;;;;;;;;0.06;55.03;98262.09;4998264;28;19926;-88
2022/03/04 07:03:33;;;;;;;;;;;;;;;0.30;53.97;98268.19;4996435;28;19998;-88
2022/03/04 07:06:07;;;;;;;;;;;;;;;0.37;54.04;98268.03;5004587;28;19914;-93
2022/03/04 07:08:37;;;;;;;;;;;;;;;0.10;55.38;98267.75;4982419;28;19926;-93
2022/03/04 07:11:08;;;;;;;;;;;;;;;-0.06;55.52;98264.75;5000870;28;20007;-93
2022/03/04 07:13:36;;;;;;;;;;;;;;;0.03;55.34;98267.06;5007323;28;19965;-93
2022/03/04 07:16:07;;;;;;;;;;;;;;;0.22;54.93;98264.03;5003476;28;19930;-89
2022/03/04 07:18:35;;;;;;;;;;;;;;;0.53;54.48;98261.94;4994454;28;20407;-90
2022/03/04 07:21:05;;;;;;;;;;;;;;;0.69;53.86;98263.06;4999719;28;20021;-90
2022/03/04 07:23:34;;;;;;;;;;;;;;;0.79;53.38;98271.28;4998792;28;19933;-89
2022/03/04 07:26:08;;;;;;;;;;;;;;;0.60;54.29;98269.84;5000395;28;20001;-87
2022/03/04 07:28:36;;;;;;;;;;;;;;;0.78;53.66;98275.00;5002672;28;19926;-90
2022/03/04 07:31:07;;;;;;;;;;;;;;;0.93;52.93;98279.81;5018415;28;20021;-94
2022/03/04 07:33:36;;;;;;;;;;;;;;;0.83;53.49;98274.28;5033908;28;19926;-91
2022/03/04 07:36:08;;;;;;;;;;;;;;;0.72;53.55;98274.09;5027356;28;19910;-94
2022/03/04 07:38:39;;;;;;;;;;;;;;;0.81;53.74;98271.88;5021213;28;19915;-91
2022/03/04 07:41:09;;;;;;;;;;;;;;;0.93;53.42;98274.47;4997295;28;19934;-91
2022/03/04 07:43:37;;;;;;;;;;;;;;;0.79;53.89;98271.28;5000330;28;19944;-90
2022/03/04 07:46:08;;;;;;;;;;;;;;;0.99;53.41;98279.66;5002811;28;19925;-88
2022/03/04 07:48:36;;;;;;;;;;;;;;;1.05;53.75;98286.72;5004809;28;19941;-87
2022/03/04 07:51:08;;;;;;;;;;;;;;;1.16;53.18;98278.88;5001977;28;19968;-89
2022/03/04 07:53:35;;;;;;;;;;;;;;;1.35;52.70;98285.66;5002938;28;20347;-89
2022/03/04 07:56:06;;;;;;;;;;;;;;;1.26;53.21;98284.41;5004046;28;19940;-81
2022/03/04 07:58:35;;;;;;;;;;;;;;;1.31;52.70;98288.00;5006680;28;19953;-89
2022/03/04 08:01:07;;;;;;;;;;;;;;;1.24;53.19;98289.22;5007658;28;19926;-82
2022/03/04 08:03:47;;;;;;;;;;;;;;;1.16;52.97;98281.56;5002959;28;19925;-90
2022/03/04 08:06:16;;;;;;;;;;;;;;;1.39;52.82;98283.31;5005219;28;19961;-89
2022/03/04 08:08:47;;;;;;;;;;;;;;;1.62;52.34;98279.66;5003860;28;20384;-79
2022/03/04 08:11:15;;;;;;;;;;;;;;;1.58;52.48;98268.59;4992045;28;19926;-78
2022/03/04 08:13:44;;;;;;;;;;;;;;;1.44;53.04;98275.34;4999700;28;19934;-80
2022/03/04 08:16:12;;;;;;;;;;;;;;;1.49;53.10;98289.63;5001412;28;19930;-82
2022/03/04 08:18:40;;;;;;;;;;;;;;;1.67;52.66;98285.09;5000749;28;20025;-80
2022/03/04 08:21:09;;;;;;;;;;;;;;;1.91;52.39;98283.03;5002089;28;19979;-81
2022/03/04 08:23:36;;;;;;;;;;;;;;;1.91;52.13;98286.50;5009511;28;19934;-77
2022/03/04 08:26:07;;;;;;;;;;;;;;;2.09;51.96;98288.94;4999182;28;19930;-79
2022/03/04 08:28:36;;;;;;;;;;;;;;;1.93;52.36;98284.41;5003602;28;20276;-78
2022/03/04 08:31:11;;;;;;;;;;;;;;;2.22;51.69;98284.25;5000999;28;20376;-80
2022/03/04 08:33:40;;;;;;;;;;;;;;;2.31;51.72;98286.25;5000320;28;19929;-79
2022/03/04 08:36:09;;;;;;;;;;;;;;;2.39;51.14;98279.66;4998030;28;19933;-76
2022/03/04 08:38:37;;;;;;;;;;;;;;;2.33;51.45;98284.13;5003876;28;19925;-90
2022/03/04 08:41:08;;;;;;;;;;;;;;;2.46;51.63;98285.66;5005464;28;20494;-92
2022/03/04 08:43:36;;;;;;;;;;;;;;;2.90;50.18;98282.94;5012335;28;19929;-94
2022/03/04 08:46:12;;;;;;;;;;;;;;;3.00;49.86;98287.59;5007090;28;19957;-90
2022/03/04 08:48:39;;;;;;;;;;;;;;;3.06;50.12;98278.53;5005008;28;19951;-92
2022/03/04 08:51:17;;;;;;;;;;;;;;;3.34;49.64;98285.50;5003904;28;20304;-90
2022/03/04 08:53:45;;;;;;;;;;;;;;;3.58;49.01;98285.97;5000810;28;19990;-90
2022/03/04 08:56:13;;;;;;;;;;;;;;;3.71;48.95;98276.66;5001526;28;19980;-81
2022/03/04 08:58:41;;;;;;;;;;;;;;;3.55;48.55;98284.59;5001306;28;20703;-83
2022/03/04 09:01:11;;;;;;;;;;;;;;;3.81;48.11;98288.31;5001484;28;19926;-83
2022/03/04 09:03:38;;;;;;;;;;;;;;;3.79;48.37;98281.56;5000879;28;20327;-85
2022/03/04 09:06:07;;;;;;;;;;;;;;;3.74;48.54;98276.16;4998331;28;19925;-81
2022/03/04 09:08:35;;;;;;;;;;;;;;;3.62;48.89;98279.84;5000025;28;19932;-78
2022/03/04 09:11:07;;;;;;;;;;;;;;;3.81;48.70;98271.38;5006998;28;20020;-91
2022/03/04 09:13:35;;;;;;;;;;;;;;;4.03;47.81;98277.41;5001696;28;19948;-90
2022/03/04 09:16:05;;;;;;;;;;;;;;;4.06;48.00;98271.53;5005715;28;19937;-90
2022/03/04 09:18:36;;;;;;;;;;;;;;;4.26;47.63;98261.94;5004575;28;20299;-88
2022/03/04 09:21:07;;;;;;;;;;;;;;;4.40;47.28;98265.78;5003186;28;19933;-88
2022/03/04 09:23:35;;;;;;;;;;;;;;;4.54;46.81;98266.94;5002382;28;19933;-89
2022/03/04 09:26:06;;;;;;;;;;;;;;;4.49;46.75;98264.22;4997232;28;20347;-85
2022/03/04 09:28:34;;;;;;;;;;;;;;;4.23;46.74;98260.59;5000153;28;19932;-87
2022/03/04 09:31:32;;;;;;;;;;;;;;;4.32;46.80;98259.03;5001194;28;19933;-89
2022/03/04 09:34:02;;;;;;;;;;;;;;;4.26;46.64;98259.25;5000868;28;19926;-91
2022/03/04 09:36:31;;;;;;;;;;;;;;;4.56;45.99;98258.59;4997010;28;19933;-89
2022/03/04 09:38:59;;;;;;;;;;;;;;;4.69;46.16;98255.41;4998629;28;19925;-90
2022/03/04 09:41:28;;;;;;;;;;;;;;;4.76;45.80;98258.66;4998246;28;19926;-90
2022/03/04 09:43:56;;;;;;;;;;;;;;;4.75;45.53;98257.03;5000981;28;20352;-90
2022/03/04 09:46:24;;;;;;;;;;;;;;;4.67;45.64;98252.97;5002131;28;20086;-90
2022/03/04 09:48:53;;;;;;;;;;;;;;;4.42;45.68;98259.09;4998889;28;20024;-90
2022/03/04 09:51:23;;;;;;;;;;;;;;;4.66;45.42;98254.03;5000987;28;19953;-90
2022/03/04 09:53:52;;;;;;;;;;;;;;;4.98;45.10;98261.94;4997671;28;20308;-89
2022/03/04 09:56:44;;;;;;;;;;;;;;;4.87;44.62;98262.19;5000308;28;19926;-90
2022/03/04 09:59:13;;;;;;;;;;;;;;;4.88;45.19;98250.34;5002123;28;20363;-89
2022/03/04 10:01:40;;;;;;;;;;;;;;;5.22;44.14;98256.88;4995543;28;19934;-88
2022/03/04 10:04:08;;;;;;;;;;;;;;;5.13;44.07;98252.28;4998904;28;20375;-90
2022/03/04 10:06:39;;;;;;;;;;;;;;;5.21;44.22;98257.94;5001019;28;19929;-91
2022/03/04 10:09:11;;;;;;;;;;;;;;;5.46;44.16;98259.03;4998238;28;20327;-86
2022/03/04 10:11:40;;;;;;;;;;;;;;;5.43;43.10;98252.31;4998375;28;19926;-89
2022/03/04 10:14:08;;;;;;;;;;;;;;;5.37;43.32;98255.25;4996110;28;21308;-88
2022/03/04 10:16:38;;;;;;;;;;;;;;;5.44;43.38;98255.81;4999498;28;19926;-88
2022/03/04 10:19:08;;;;;;;;;;;;;;;5.66;42.99;98253.63;5000333;28;20032;-87
2022/03/04 10:21:47;;;;;;;;;;;;;;;5.66;43.07;98255.53;4999858;28;19983;-82
2022/03/04 10:24:15;;;;;;;;;;;;;;;5.84;42.86;98251.47;4999451;28;19933;-88
2022/03/04 10:26:46;;;;;;;;;;;;;;;5.90;42.30;98248.47;4997752;28;20125;-89
2022/03/04 10:29:19;;;;;;;;;;;;;;;6.06;43.08;98251.97;4998473;28;19926;-85
2022/03/04 10:32:06;;;;;;;;;;;;;;;6.26;42.21;98249.22;5000711;28;19925;-84
2022/03/04 10:34:49;;;;;;;;;;;;;;;6.10;42.10;98249.56;5000021;28;19933;-81
2022/03/04 10:37:20;;;;;;;;;;;;;;;6.22;42.38;98256.25;4998447;28;19941;-85
2022/03/04 10:39:57;;;;;;;;;;;;;;;6.22;41.60;98255.44;4997842;28;19945;-89
2022/03/04 10:42:38;;;;;;;;;;;;;;;6.04;42.49;98252.25;4998182;28;20292;-88
2022/03/04 10:45:31;;;;;;;;;;;;;;;6.21;42.10;98245.75;4999976;28;19933;-88
2022/03/04 10:48:00;;;;;;;;;;;;;;;6.57;41.91;98241.84;4998785;28;19926;-90
2022/03/04 10:50:31;;;;;;;;;;;;;;;6.54;40.77;98250.47;4977530;28;19926;-87
2022/03/04 10:53:02;;;;;;;;;;;;;;;6.49;40.96;98236.19;5007730;28;19972;-90
2022/03/04 10:55:34;;;;;;;;;;;;;;;6.41;41.62;98236.78;4997977;28;19972;-87
2022/03/04 10:58:03;;;;;;;;;;;;;;;6.68;40.07;98239.88;5004686;28;20458;-91
2022/03/04 11:00:32;;;;;;;;;;;;;;;6.90;40.16;98234.09;4999948;28;19925;-78
2022/03/04 11:03:07;;;;;;;;;;;;;;;7.13;39.29;98238.00;4999446;28;19956;-92
2022/03/04 11:08:54;;;;;;;;;;;;;;;7.04;38.79;98235.09;5001526;28;19926;-93
2022/03/04 11:11:47;;;;;;;;;;;;;;;6.65;39.93;98229.63;5008190;28;19953;-95
2022/03/04 11:14:24;;;;;;;;;;;;;;;6.79;39.63;98236.03;5075157;28;20264;-94
2022/03/04 11:17:00;;;;;;;;;;;;;;;6.64;39.44;98222.63;5076544;28;20379;-93
2022/03/04 11:19:28;;;;;;;;;;;;;;;6.81;39.03;98228.47;5070842;28;19925;-94
2022/03/04 11:25:12;;;;;;;;;;;;;;;6.50;39.44;98227.03;5080003;28;20356;-93
2022/03/04 11:28:33;;;;;;;;;;;;;;;6.95;37.87;98217.06;5068360;28;19931;-93
2022/03/04 11:31:30;;;;;;;;;;;;;;;7.28;37.26;98227.06;5006897;28;20007;-92
2022/03/04 11:34:00;;;;;;;;;;;;;;;7.28;37.97;98224.38;5052472;28;19925;-94
2022/03/04 11:36:29;;;;;;;;;;;;;;;7.65;38.21;98214.06;5051239;28;19971;-94
2022/03/04 11:39:02;;;;;;;;;;;;;;;7.84;36.56;98213.09;5045091;28;19925;-91
2022/03/04 11:41:37;;;;;;;;;;;;;;;7.74;36.29;98207.78;5029910;28;19968;-92
2022/03/04 11:44:13;;;;;;;;;;;;;;;7.70;36.37;98209.44;5016979;28;19932;-88
2022/03/04 11:46:49;;;;;;;;;;;;;;;8.01;36.03;98209.13;5045979;28;20015;-89
2022/03/04 11:52:24;;;;;;;;;;;;;;;7.95;35.40;98202.16;5031990;28;19935;-91
2022/03/04 11:55:20;;;;;;;;;;;;;;;8.14;35.56;98194.91;5016607;28;19936;-89
2022/03/04 11:58:01;;;;;;;;;;;;;;;7.94;35.57;98189.72;5043505;28;19931;-87
2022/03/04 12:00:47;;;;;;;;;;;;;;;7.86;35.33;98191.16;5050197;28;19924;-92
2022/03/04 12:03:16;;;;;;;;;;;;;;;7.99;35.39;98192.34;5051510;28;19933;-90
2022/03/04 12:08:57;;;;;;;;;;;;;;;7.82;35.15;98193.63;5047064;28;19933;-92
2022/03/04 12:11:25;;;;;;;;;;;;;;;8.15;35.55;98188.41;5046998;28;19929;-88
2022/03/04 12:14:06;;;;;;;;;;;;;;;7.85;35.15;98178.72;5046503;28;19925;-90
2022/03/04 12:16:48;;;;;;;;;;;;;;;7.94;35.08;98185.13;5044241;28;19931;-89
2022/03/04 12:19:38;;;;;;;;;;;;;;;8.02;34.12;98178.25;5045879;28;19939;-87
2022/03/04 12:22:07;;;;;;;;;;;;;;;8.09;34.95;98187.63;5040471;28;19933;-89
2022/03/04 12:24:36;;;;;;;;;;;;;;;8.00;34.42;98194.00;5047267;28;20383;-91
2022/03/04 12:27:04;;;;;;;;;;;;;;;7.94;34.92;98187.03;5026945;28;19931;-90
2022/03/04 12:29:43;;;;;;;;;;;;;;;7.83;34.51;98192.53;5044221;28;19925;-90
2022/03/04 12:32:12;;;;;;;;;;;;;;;7.89;34.29;98187.88;5063148;28;19970;-89
2022/03/04 12:34:47;;;;;;;;;;;;;;;7.70;35.59;98185.09;5060819;28;19928;-90
2022/03/04 12:37:15;;;;;;;;;;;;;;;7.84;35.15;98185.22;5065685;28;19925;-90
2022/03/04 12:39:50;;;;;;;;;;;;;;;7.92;34.86;98187.28;5064454;28;19925;-89
2022/03/04 12:42:21;;;;;;;;;;;;;;;8.11;34.49;98173.84;5062975;28;19974;-87
2022/03/04 12:44:51;;;;;;;;;;;;;;;8.24;35.16;98188.56;5059758;28;19924;-88
2022/03/04 12:47:19;;;;;;;;;;;;;;;7.80;34.45;98189.59;5060422;28;20394;-90
2022/03/04 12:49:49;;;;;;;;;;;;;;;7.69;35.40;98188.09;5044752;28;19971;-87
2022/03/04 12:52:19;;;;;;;;;;;;;;;7.79;35.19;98182.56;5061202;28;20284;-85
2022/03/04 12:54:46;;;;;;;;;;;;;;;8.00;35.03;98185.88;5065691;28;20517;-92
2022/03/04 12:57:15;;;;;;;;;;;;;;;7.95;33.86;98185.94;5058264;28;19968;-92
2022/03/04 12:59:44;;;;;;;;;;;;;;;7.92;34.16;98176.47;5065589;28;20015;-94
2022/03/04 13:02:13;;;;;;;;;;;;;;;7.94;35.03;98187.84;5066898;28;20010;-91
2022/03/04 13:04:41;;;;;;;;;;;;;;;7.82;34.97;98174.69;5064342;28;19932;-92
2022/03/04 13:07:09;;;;;;;;;;;;;;;7.80;34.85;98174.16;5060140;28;19925;-91
2022/03/04 13:09:37;;;;;;;;;;;;;;;8.21;34.63;98175.63;5068404;28;19986;-93
2022/03/04 13:12:08;;;;;;;;;;;;;;;8.20;34.22;98172.09;5066084;28;19935;-91
2022/03/04 13:14:35;;;;;;;;;;;;;;;8.22;34.53;98178.03;5068165;28;19929;-92
2022/03/04 13:17:11;;;;;;;;;;;;;;;8.40;33.51;98181.91;5077744;28;19931;-91
2022/03/04 13:19:40;;;;;;;;;;;;;;;8.14;33.56;98167.84;5071529;28;19956;-93
2022/03/04 13:22:08;;;;;;;;;;;;;;;7.97;33.69;98168.31;5062584;28;19924;-91
2022/03/04 13:24:38;;;;;;;;;;;;;;;7.70;34.19;98174.28;5065243;28;19935;-92
2022/03/04 13:27:07;;;;;;;;;;;;;;;7.26;35.08;98174.41;5067492;28;19925;-92
2022/03/04 13:29:38;;;;;;;;;;;;;;;7.49;33.79;98172.84;5064286;28;20394;-93